Blaine, WA

11:19 AM PDT on October 01, 2014 (GMT -0700)
East Cloverdale | Change Station
CLOSE
Current Station
Personal Weather Station
Location: Surrey, BC
Elevation: 110 ft
Nearby Weather Stations

Elev 110 ft 49.12 °N, 122.68 °W | Updated 4 minutes ago

Overcast
Overcast
60.3 °F
Feels Like 60.3 °F
N
6.0
Wind Variable Wind from SSE
Gusts 7.0 mph

Today
High -- | Low -- °F
--% Chance of Precip.
Yesterday
High -- | Low -- °F
Precip. -- in
7:10 AM 6:49 PM
Waxing Crescent, 50% visible
Pressure 30.08 in
Visibility 10.0 miles
Clouds Clear
Dew Point 52 °F
Humidity 76%
Rainfall 0.00 in
Snow Depth 0 in , 0 in , 0 in
UV 3 out of 12
Pollen 1.30 out of 12
PM2.5 Good
Flu Activity Not available.
METAR KBLI 301753Z AUTO 17006KT 10SM CLR 16/10 A3006 RMK AO2 SLP184 6//// T01560100 10156 20117 53014 TSNO

More Conditions Fewer Conditions

Pressure 30.08 in
Visibility 10.0 miles
Clouds Clear
Dew Point 52 °F
Humidity 76%
Rainfall 0.00 in
Snow Depth 0 in , 0 in , 0 in
UV 3 out of 12
Pollen 1.30 out of 12
PM2.5 Good
Flu Activity Not available.
METAR KBLI 301753Z AUTO 17006KT 10SM CLR 16/10 A3006 RMK AO2 SLP184 6//// T01560100 10156 20117 53014 TSNO

More Conditions Fewer Conditions

10-Day Weather Forecast

Almanac

Astronomy

Oct. 01, 2014 Rise Set
Actual Time 7:10 AM PDT 6:49 PM PDT
Civil Twilight 6:39 AM PDT 7:21 PM PDT
Nautical Twilight 6:02 AM PDT 7:57 PM PDT
Astronomical Twilight 5:24 AM PDT 8:35 PM PDT
Moon 2:38 PM PDT No Moon Set
Length of Visible Light 12h 41m
Length of Day
11h 38m
Tomorrow will be 3m 34s shorter.
Waxing Crescent, 50% of the Moon is Illuminated
Today
Waxing Crescent
Oct 1
First Quarter
Oct 8
Full
Oct 15
Last Quarter
Oct 23
New

Today's Extremes

State Highs State Lows

Community

WunderPhotos

Upload Photos

1,758,008 photos uploaded!

WunderBlogs® & News

By Dr. Jeff Masters
Director of Meteorology, Weather Underground
By Kari Strenfel
Meteorologist, Weather Underground
By Christopher C. Burt
Weather Historian, Weather Underground
October 1, 2014
October 1, 2014
October 1, 2014

Nearby

Air Quality

  Air Quality AQ Index Pollutant
Yesterday Good
OZONE
Yesterday Good
PM2.5
Current Good
PM2.5
Wednesday Good
OZONE
Wednesday Good
PM2.5
Thursday Good
OZONE
Thursday Good
PM2.5
Friday Good
OZONE
Friday Good
PM2.5

Snow Depth

Station Depth Elevation
Pigtail Peak 0 in 5900 ft
June Lake 0 in 3340 ft
Spirit Lake 0 in 3120 ft
Morse Lake 0 in 5400 ft
Moses Mountain 1 in 5300 ft

Earthquake Activity

City Distance Mag. Time & Date
No recent earthquake activity has been reported nearby.
Minimum magnitude displayed is 2.5.

Coastal Water Temperatures

Place Temperature
Port Townsend, WA 52.0 °F
Friday Harbor, WA 51.1 °F
Port Angeles, WA 51.1 °F

Nearby Weather Stations